sensor_id;sensor_type;location;lat;lon;timestamp;pressure;altitude;pressure_sealevel;temperature;humidity
6094;BME280;19964;42.060;24.700;2023-07-13T00:02:10;97611.03;;;24.01;64.09
6094;BME280;19964;42.060;24.700;2023-07-13T00:04:37;97623.19;;;24.02;63.96
6094;BME280;19964;42.060;24.700;2023-07-13T00:07:04;97627.91;;;24.05;63.84
6094;BME280;19964;42.060;24.700;2023-07-13T00:09:32;97624.13;;;23.97;63.78
6094;BME280;19964;42.060;24.700;2023-07-13T00:11:58;97624.28;;;24.01;63.68
6094;BME280;19964;42.060;24.700;2023-07-13T00:14:25;97627.03;;;23.87;64.10
6094;BME280;19964;42.060;24.700;2023-07-13T00:16:52;97628.56;;;23.79;64.26
6094;BME280;19964;42.060;24.700;2023-07-13T00:19:19;97623.06;;;23.67;64.81
6094;BME280;19964;42.060;24.700;2023-07-13T00:21:46;97622.63;;;23.74;64.55
6094;BME280;19964;42.060;24.700;2023-07-13T00:24:16;97619.97;;;23.74;64.45
6094;BME280;19964;42.060;24.700;2023-07-13T00:26:49;97623.88;;;23.76;64.16
6094;BME280;19964;42.060;24.700;2023-07-13T00:29:16;97616.56;;;23.82;64.17
6094;BME280;19964;42.060;24.700;2023-07-13T00:31:42;97613.25;;;23.68;64.49
6094;BME280;19964;42.060;24.700;2023-07-13T00:34:10;97610.94;;;23.36;65.96
6094;BME280;19964;42.060;24.700;2023-07-13T00:36:37;97611.03;;;23.53;65.24
6094;BME280;19964;42.060;24.700;2023-07-13T00:39:03;97609.09;;;23.36;65.30
6094;BME280;19964;42.060;24.700;2023-07-13T00:41:30;97608.03;;;23.46;65.16
6094;BME280;19964;42.060;24.700;2023-07-13T00:43:58;97609.00;;;23.28;66.13
6094;BME280;19964;42.060;24.700;2023-07-13T00:46:26;97606.31;;;23.41;66.04
6094;BME280;19964;42.060;24.700;2023-07-13T00:48:54;97598.78;;;23.35;66.39
6094;BME280;19964;42.060;24.700;2023-07-13T00:51:23;97596.03;;;23.40;65.96
6094;BME280;19964;42.060;24.700;2023-07-13T00:53:50;97596.19;;;23.43;65.66
6094;BME280;19964;42.060;24.700;2023-07-13T00:56:17;97599.00;;;23.38;65.75
6094;BME280;19964;42.060;24.700;2023-07-13T00:58:44;97598.56;;;23.23;66.47
6094;BME280;19964;42.060;24.700;2023-07-13T01:01:12;97592.97;;;23.24;66.28
6094;BME280;19964;42.060;24.700;2023-07-13T01:03:39;97601.75;;;23.33;66.05
6094;BME280;19964;42.060;24.700;2023-07-13T01:06:06;97598.69;;;23.18;66.62
6094;BME280;19964;42.060;24.700;2023-07-13T01:08:33;97598.81;;;23.13;66.43
6094;BME280;19964;42.060;24.700;2023-07-13T01:11:00;97594.81;;;23.15;65.98
6094;BME280;19964;42.060;24.700;2023-07-13T01:13:26;97587.78;;;23.11;66.98
6094;BME280;19964;42.060;24.700;2023-07-13T01:15:53;97581.63;;;23.01;67.18
6094;BME280;19964;42.060;24.700;2023-07-13T01:18:22;97580.16;;;23.09;66.98
6094;BME280;19964;42.060;24.700;2023-07-13T01:20:52;97571.38;;;23.00;67.90
6094;BME280;19964;42.060;24.700;2023-07-13T01:23:19;97579.06;;;22.88;67.51
6094;BME280;19964;42.060;24.700;2023-07-13T01:25:46;97576.97;;;22.98;67.05
6094;BME280;19964;42.060;24.700;2023-07-13T01:28:12;97576.53;;;23.05;66.21
6094;BME280;19964;42.060;24.700;2023-07-13T01:30:39;97578.88;;;23.07;66.21
6094;BME280;19964;42.060;24.700;2023-07-13T01:33:06;97581.09;;;23.13;66.34
6094;BME280;19964;42.060;24.700;2023-07-13T01:35:32;97575.50;;;23.15;66.14
6094;BME280;19964;42.060;24.700;2023-07-13T01:38:00;97587.03;;;23.19;65.68
6094;BME280;19964;42.060;24.700;2023-07-13T01:40:28;97574.88;;;23.18;65.74
6094;BME280;19964;42.060;24.700;2023-07-13T01:42:55;97583.28;;;23.11;66.45
6094;BME280;19964;42.060;24.700;2023-07-13T01:45:21;97586.25;;;23.18;66.41
6094;BME280;19964;42.060;24.700;2023-07-13T01:47:48;97581.44;;;23.20;66.10
6094;BME280;19964;42.060;24.700;2023-07-13T01:50:15;97584.34;;;23.10;66.87
6094;BME280;19964;42.060;24.700;2023-07-13T01:52:41;97586.66;;;23.12;67.07
6094;BME280;19964;42.060;24.700;2023-07-13T01:55:09;97588.97;;;23.05;67.06
6094;BME280;19964;42.060;24.700;2023-07-13T01:57:36;97591.78;;;23.08;66.78
6094;BME280;19964;42.060;24.700;2023-07-13T02:00:03;97594.81;;;22.93;67.18
6094;BME280;19964;42.060;24.700;2023-07-13T02:02:31;97595.22;;;22.86;67.46
6094;BME280;19964;42.060;24.700;2023-07-13T02:04:57;97594.25;;;22.82;67.55
6094;BME280;19964;42.060;24.700;2023-07-13T02:07:24;97601.38;;;22.73;68.42
6094;BME280;19964;42.060;24.700;2023-07-13T02:09:50;97601.28;;;22.65;68.45
6094;BME280;19964;42.060;24.700;2023-07-13T02:12:18;97608.84;;;22.58;68.82
6094;BME280;19964;42.060;24.700;2023-07-13T02:14:45;97616.78;;;22.58;68.68
6094;BME280;19964;42.060;24.700;2023-07-13T02:17:11;97622.06;;;22.58;68.94
6094;BME280;19964;42.060;24.700;2023-07-13T02:19:38;97619.41;;;22.58;68.63
6094;BME280;19964;42.060;24.700;2023-07-13T02:22:04;97620.56;;;22.65;68.46
6094;BME280;19964;42.060;24.700;2023-07-13T02:24:31;97625.50;;;22.58;68.06
6094;BME280;19964;42.060;24.700;2023-07-13T02:26:57;97626.34;;;22.54;68.34
6094;BME280;19964;42.060;24.700;2023-07-13T02:29:25;97628.19;;;22.53;68.71
6094;BME280;19964;42.060;24.700;2023-07-13T02:31:52;97613.53;;;22.47;68.91
6094;BME280;19964;42.060;24.700;2023-07-13T02:34:18;97615.59;;;22.50;68.79
6094;BME280;19964;42.060;24.700;2023-07-13T02:36:45;97622.91;;;22.53;68.33
6094;BME280;19964;42.060;24.700;2023-07-13T02:39:11;97618.09;;;22.69;67.32
6094;BME280;19964;42.060;24.700;2023-07-13T02:41:38;97622.91;;;22.67;67.52
6094;BME280;19964;42.060;24.700;2023-07-13T02:44:05;97629.06;;;22.76;67.56
6094;BME280;19964;42.060;24.700;2023-07-13T02:46:35;97627.97;;;22.77;67.63
6094;BME280;19964;42.060;24.700;2023-07-13T02:49:02;97622.16;;;22.66;68.45
6094;BME280;19964;42.060;24.700;2023-07-13T02:51:29;97617.31;;;22.55;68.32
6094;BME280;19964;42.060;24.700;2023-07-13T02:53:56;97619.91;;;22.46;68.77
6094;BME280;19964;42.060;24.700;2023-07-13T02:56:23;97629.59;;;22.51;68.95
6094;BME280;19964;42.060;24.700;2023-07-13T02:58:50;97625.06;;;22.51;68.58
6094;BME280;19964;42.060;24.700;2023-07-13T03:01:17;97618.38;;;22.32;69.99
6094;BME280;19964;42.060;24.700;2023-07-13T03:03:45;97612.84;;;22.20;70.36
6094;BME280;19964;42.060;24.700;2023-07-13T03:06:12;97620.78;;;22.42;69.19
6094;BME280;19964;42.060;24.700;2023-07-13T03:08:39;97618.75;;;22.39;69.78
6094;BME280;19964;42.060;24.700;2023-07-13T03:11:06;97618.00;;;22.25;70.26
6094;BME280;19964;42.060;24.700;2023-07-13T03:13:33;97620.94;;;22.23;71.05
6094;BME280;19964;42.060;24.700;2023-07-13T03:16:00;97624.06;;;22.25;70.71
6094;BME280;19964;42.060;24.700;2023-07-13T03:18:27;97630.22;;;22.34;70.54
6094;BME280;19964;42.060;24.700;2023-07-13T03:20:55;97635.84;;;22.41;70.30
6094;BME280;19964;42.060;24.700;2023-07-13T03:23:22;97639.47;;;22.59;69.60
6094;BME280;19964;42.060;24.700;2023-07-13T03:25:50;97634.34;;;22.76;69.07
6094;BME280;19964;42.060;24.700;2023-07-13T03:28:16;97634.88;;;22.86;69.02
6094;BME280;19964;42.060;24.700;2023-07-13T03:30:43;97632.69;;;22.88;68.82
6094;BME280;19964;42.060;24.700;2023-07-13T03:33:09;97631.09;;;23.01;68.61
6094;BME280;19964;42.060;24.700;2023-07-13T03:35:36;97620.94;;;23.17;67.70
6094;BME280;19964;42.060;24.700;2023-07-13T03:38:07;97620.13;;;23.16;68.26
6094;BME280;19964;42.060;24.700;2023-07-13T03:40:34;97611.97;;;23.26;68.51
6094;BME280;19964;42.060;24.700;2023-07-13T03:43:00;97605.22;;;23.20;68.36
6094;BME280;19964;42.060;24.700;2023-07-13T03:45:28;97603.00;;;23.36;68.07
6094;BME280;19964;42.060;24.700;2023-07-13T03:47:54;97608.78;;;23.38;67.35
6094;BME280;19964;42.060;24.700;2023-07-13T03:50:21;97607.63;;;23.61;66.87
6094;BME280;19964;42.060;24.700;2023-07-13T03:52:47;97605.72;;;23.92;65.90
6094;BME280;19964;42.060;24.700;2023-07-13T03:55:15;97599.28;;;24.24;65.63
6094;BME280;19964;42.060;24.700;2023-07-13T03:57:42;97607.84;;;24.38;64.37
6094;BME280;19964;42.060;24.700;2023-07-13T04:00:09;97610.03;;;24.70;64.45
6094;BME280;19964;42.060;24.700;2023-07-13T04:02:35;97617.22;;;24.95;62.48
6094;BME280;19964;42.060;24.700;2023-07-13T04:05:02;97620.16;;;25.11;62.50
6094;BME280;19964;42.060;24.700;2023-07-13T04:07:29;97621.03;;;25.40;62.50
6094;BME280;19964;42.060;24.700;2023-07-13T04:09:55;97623.97;;;25.56;62.48
6094;BME280;19964;42.060;24.700;2023-07-13T04:12:23;97640.59;;;25.74;61.90
6094;BME280;19964;42.060;24.700;2023-07-13T04:14:50;97632.31;;;26.04;61.66
6094;BME280;19964;42.060;24.700;2023-07-13T04:17:16;97638.41;;;26.13;60.45
6094;BME280;19964;42.060;24.700;2023-07-13T04:19:43;97640.38;;;26.45;62.17
6094;BME280;19964;42.060;24.700;2023-07-13T04:22:09;97635.28;;;26.40;60.89
6094;BME280;19964;42.060;24.700;2023-07-13T04:24:36;97635.47;;;26.56;61.50
6094;BME280;19964;42.060;24.700;2023-07-13T04:27:02;97638.31;;;26.92;60.82
6094;BME280;19964;42.060;24.700;2023-07-13T04:29:31;97637.47;;;27.00;59.81
6094;BME280;19964;42.060;24.700;2023-07-13T04:31:57;97636.16;;;27.06;60.94
6094;BME280;19964;42.060;24.700;2023-07-13T04:34:24;97631.41;;;27.33;59.46
6094;BME280;19964;42.060;24.700;2023-07-13T04:36:51;97650.72;;;27.54;59.08
6094;BME280;19964;42.060;24.700;2023-07-13T04:39:18;97655.63;;;27.76;58.37
6094;BME280;19964;42.060;24.700;2023-07-13T04:41:46;97661.28;;;27.86;55.77
6094;BME280;19964;42.060;24.700;2023-07-13T04:44:13;97652.97;;;27.76;56.27
6094;BME280;19964;42.060;24.700;2023-07-13T04:46:41;97644.69;;;27.45;56.52
6094;BME280;19964;42.060;24.700;2023-07-13T04:49:07;97645.47;;;27.33;57.34
6094;BME280;19964;42.060;24.700;2023-07-13T04:51:34;97652.59;;;26.88;58.91
6094;BME280;19964;42.060;24.700;2023-07-13T04:54:01;97650.06;;;26.91;59.44
6094;BME280;19964;42.060;24.700;2023-07-13T04:56:28;97652.22;;;27.10;58.98
6094;BME280;19964;42.060;24.700;2023-07-13T04:58:55;97656.19;;;27.24;59.55
6094;BME280;19964;42.060;24.700;2023-07-13T05:01:23;97658.38;;;27.22;58.55
6094;BME280;19964;42.060;24.700;2023-07-13T05:03:51;97651.41;;;27.75;58.57
6094;BME280;19964;42.060;24.700;2023-07-13T05:06:20;97653.75;;;27.76;57.29
6094;BME280;19964;42.060;24.700;2023-07-13T05:08:47;97660.31;;;27.79;57.39
6094;BME280;19964;42.060;24.700;2023-07-13T05:11:13;97662.50;;;27.77;55.94
6094;BME280;19964;42.060;24.700;2023-07-13T05:13:40;97659.97;;;27.80;56.93
6094;BME280;19964;42.060;24.700;2023-07-13T05:16:06;97662.88;;;28.24;57.24
6094;BME280;19964;42.060;24.700;2023-07-13T05:18:33;97657.84;;;28.58;55.51
6094;BME280;19964;42.060;24.700;2023-07-13T05:21:03;97662.38;;;28.97;54.46
6094;BME280;19964;42.060;24.700;2023-07-13T05:23:31;97655.34;;;29.33;53.16
6094;BME280;19964;42.060;24.700;2023-07-13T05:25:58;97661.13;;;29.35;52.72
6094;BME280;19964;42.060;24.700;2023-07-13T05:28:26;97660.91;;;29.12;53.68
6094;BME280;19964;42.060;24.700;2023-07-13T05:30:53;97660.88;;;28.84;54.41
6094;BME280;19964;42.060;24.700;2023-07-13T05:33:20;97657.56;;;29.15;53.58
6094;BME280;19964;42.060;24.700;2023-07-13T05:35:47;97656.03;;;29.02;53.79
6094;BME280;19964;42.060;24.700;2023-07-13T05:38:15;97658.06;;;28.53;55.22
6094;BME280;19964;42.060;24.700;2023-07-13T05:40:43;97664.25;;;28.69;55.77
6094;BME280;19964;42.060;24.700;2023-07-13T05:43:10;97664.50;;;29.47;54.13
6094;BME280;19964;42.060;24.700;2023-07-13T05:45:36;97659.25;;;29.35;54.47
6094;BME280;19964;42.060;24.700;2023-07-13T05:48:03;97621.00;;;29.31;53.44
6094;BME280;19964;42.060;24.700;2023-07-13T05:50:30;97659.78;;;29.41;54.17
6094;BME280;19964;42.060;24.700;2023-07-13T05:52:57;97664.28;;;29.83;52.93
6094;BME280;19964;42.060;24.700;2023-07-13T05:55:24;97656.75;;;30.36;54.21
6094;BME280;19964;42.060;24.700;2023-07-13T05:57:51;97662.03;;;30.32;53.42
6094;BME280;19964;42.060;24.700;2023-07-13T06:00:18;97669.09;;;30.59;52.05
6094;BME280;19964;42.060;24.700;2023-07-13T06:02:45;97670.16;;;30.74;51.51
6094;BME280;19964;42.060;24.700;2023-07-13T06:05:11;97670.84;;;30.87;51.17
6094;BME280;19964;42.060;24.700;2023-07-13T06:07:38;97666.13;;;30.45;51.56
6094;BME280;19964;42.060;24.700;2023-07-13T06:10:05;97669.03;;;30.56;52.23
6094;BME280;19964;42.060;24.700;2023-07-13T06:12:33;97670.44;;;30.50;51.76
6094;BME280;19964;42.060;24.700;2023-07-13T06:14:59;97668.88;;;29.83;52.30
6094;BME280;19964;42.060;24.700;2023-07-13T06:17:26;97677.56;;;29.96;52.76
6094;BME280;19964;42.060;24.700;2023-07-13T06:19:53;97666.94;;;29.68;52.32
6094;BME280;19964;42.060;24.700;2023-07-13T06:22:19;97679.84;;;29.50;52.74
6094;BME280;19964;42.060;24.700;2023-07-13T06:24:46;97667.13;;;30.06;53.53
6094;BME280;19964;42.060;24.700;2023-07-13T06:27:13;97670.97;;;30.40;51.43
6094;BME280;19964;42.060;24.700;2023-07-13T06:29:41;97672.22;;;30.61;51.67
6094;BME280;19964;42.060;24.700;2023-07-13T06:32:10;97676.09;;;31.21;49.80
6094;BME280;19964;42.060;24.700;2023-07-13T06:34:37;97679.25;;;30.69;50.43
6094;BME280;19964;42.060;24.700;2023-07-13T06:37:04;97668.75;;;30.61;51.16
6094;BME280;19964;42.060;24.700;2023-07-13T06:39:31;97669.19;;;30.63;51.51
6094;BME280;19964;42.060;24.700;2023-07-13T06:41:58;97670.78;;;30.48;50.64
6094;BME280;19964;42.060;24.700;2023-07-13T06:44:25;97671.00;;;30.78;50.55
6094;BME280;19964;42.060;24.700;2023-07-13T06:46:53;97661.81;;;31.14;51.04
6094;BME280;19964;42.060;24.700;2023-07-13T06:49:20;97669.84;;;31.14;49.53
6094;BME280;19964;42.060;24.700;2023-07-13T06:51:47;97657.34;;;31.40;48.59
6094;BME280;19964;42.060;24.700;2023-07-13T06:54:13;97669.19;;;32.07;47.65
6094;BME280;19964;42.060;24.700;2023-07-13T06:56:40;97662.41;;;31.91;47.70
6094;BME280;19964;42.060;24.700;2023-07-13T06:59:08;97665.66;;;32.82;48.28
6094;BME280;19964;42.060;24.700;2023-07-13T07:01:35;97673.13;;;32.39;46.45
6094;BME280;19964;42.060;24.700;2023-07-13T07:04:03;97676.44;;;32.85;46.02
6094;BME280;19964;42.060;24.700;2023-07-13T07:06:30;97662.84;;;33.01;46.10
6094;BME280;19964;42.060;24.700;2023-07-13T07:08:57;97669.22;;;33.22;47.51
6094;BME280;19964;42.060;24.700;2023-07-13T07:11:25;97666.25;;;33.31;44.89
6094;BME280;19964;42.060;24.700;2023-07-13T07:13:52;97674.63;;;32.37;46.84
6094;BME280;19964;42.060;24.700;2023-07-13T07:16:20;97671.16;;;32.36;47.21
6094;BME280;19964;42.060;24.700;2023-07-13T07:18:47;97671.91;;;32.33;47.18
6094;BME280;19964;42.060;24.700;2023-07-13T07:21:15;97665.97;;;31.95;48.03
6094;BME280;19964;42.060;24.700;2023-07-13T07:23:42;97668.72;;;32.80;48.49
6094;BME280;19964;42.060;24.700;2023-07-13T07:26:09;97667.13;;;33.46;48.30
6094;BME280;19964;42.060;24.700;2023-07-13T07:28:37;97658.44;;;33.19;45.31
6094;BME280;19964;42.060;24.700;2023-07-13T07:31:04;97650.53;;;32.96;47.22
6094;BME280;19964;42.060;24.700;2023-07-13T07:33:32;97666.31;;;33.42;46.96
6094;BME280;19964;42.060;24.700;2023-07-13T07:35:59;97664.44;;;33.46;45.41
6094;BME280;19964;42.060;24.700;2023-07-13T07:38:27;97670.16;;;34.25;45.07
6094;BME280;19964;42.060;24.700;2023-07-13T07:40:54;97667.44;;;34.25;44.23
6094;BME280;19964;42.060;24.700;2023-07-13T07:43:21;97670.06;;;34.14;42.89
6094;BME280;19964;42.060;24.700;2023-07-13T07:45:48;97675.72;;;34.02;43.20
6094;BME280;19964;42.060;24.700;2023-07-13T07:48:14;97666.44;;;34.47;43.47
6094;BME280;19964;42.060;24.700;2023-07-13T07:50:41;97667.06;;;34.26;44.17
6094;BME280;19964;42.060;24.700;2023-07-13T07:53:11;97673.53;;;34.76;43.03
6094;BME280;19964;42.060;24.700;2023-07-13T07:55:39;97669.47;;;35.28;42.90
6094;BME280;19964;42.060;24.700;2023-07-13T07:58:06;97681.13;;;35.81;41.86
6094;BME280;19964;42.060;24.700;2023-07-13T08:00:34;97676.47;;;35.60;40.01
6094;BME280;19964;42.060;24.700;2023-07-13T08:03:01;97679.72;;;34.83;40.69
6094;BME280;19964;42.060;24.700;2023-07-13T08:05:28;97661.22;;;34.82;42.61
6094;BME280;19964;42.060;24.700;2023-07-13T08:07:55;97662.63;;;35.48;40.82
6094;BME280;19964;42.060;24.700;2023-07-13T08:10:22;97671.13;;;36.06;40.72
6094;BME280;19964;42.060;24.700;2023-07-13T08:12:50;97676.06;;;36.53;39.57
6094;BME280;19964;42.060;24.700;2023-07-13T08:15:17;97677.56;;;36.72;38.15
6094;BME280;19964;42.060;24.700;2023-07-13T08:17:46;97664.72;;;37.01;39.93
6094;BME280;19964;42.060;24.700;2023-07-13T08:20:13;97668.25;;;37.60;39.02
6094;BME280;19964;42.060;24.700;2023-07-13T08:22:40;97623.31;;;36.14;38.45
6094;BME280;19964;42.060;24.700;2023-07-13T08:25:07;97658.69;;;36.65;37.54
6094;BME280;19964;42.060;24.700;2023-07-13T08:27:34;97660.13;;;36.94;38.60
6094;BME280;19964;42.060;24.700;2023-07-13T08:30:03;97662.25;;;37.31;38.42
6094;BME280;19964;42.060;24.700;2023-07-13T08:32:31;97656.84;;;37.31;39.65
6094;BME280;19964;42.060;24.700;2023-07-13T08:34:57;97660.44;;;37.69;38.27
6094;BME280;19964;42.060;24.700;2023-07-13T08:37:24;97665.38;;;37.22;37.77
6094;BME280;19964;42.060;24.700;2023-07-13T08:39:51;97663.97;;;36.97;37.65
6094;BME280;19964;42.060;24.700;2023-07-13T08:42:30;97654.63;;;37.08;39.88
6094;BME280;19964;42.060;24.700;2023-07-13T08:45:06;97641.13;;;37.67;36.74
6094;BME280;19964;42.060;24.700;2023-07-13T08:47:39;97646.41;;;38.28;36.59
6094;BME280;19964;42.060;24.700;2023-07-13T08:50:11;97648.47;;;38.51;35.40
6094;BME280;19964;42.060;24.700;2023-07-13T08:52:40;97637.09;;;38.29;36.77
6094;BME280;19964;42.060;24.700;2023-07-13T08:55:13;97637.81;;;38.71;37.23
6094;BME280;19964;42.060;24.700;2023-07-13T08:57:41;97632.97;;;37.74;36.96
6094;BME280;19964;42.060;24.700;2023-07-13T09:00:11;97640.81;;;36.96;36.52
6094;BME280;19964;42.060;24.700;2023-07-13T09:02:43;97636.19;;;36.93;34.78
6094;BME280;19964;42.060;24.700;2023-07-13T09:05:14;97635.31;;;37.13;36.09
6094;BME280;19964;42.060;24.700;2023-07-13T09:08:02;97635.44;;;37.54;34.92
6094;BME280;19964;42.060;24.700;2023-07-13T09:10:35;97620.72;;;38.03;37.16
6094;BME280;19964;42.060;24.700;2023-07-13T09:13:20;97628.31;;;38.89;33.32
6094;BME280;19964;42.060;24.700;2023-07-13T09:15:51;97630.56;;;39.48;34.70
6094;BME280;19964;42.060;24.700;2023-07-13T09:18:23;97626.44;;;38.83;31.99
6094;BME280;19964;42.060;24.700;2023-07-13T09:20:55;97624.97;;;38.41;31.75
6094;BME280;19964;42.060;24.700;2023-07-13T09:23:26;97622.00;;;38.96;34.07
6094;BME280;19964;42.060;24.700;2023-07-13T09:26:00;97626.31;;;39.47;32.41
6094;BME280;19964;42.060;24.700;2023-07-13T09:28:36;97623.31;;;39.14;32.15
6094;BME280;19964;42.060;24.700;2023-07-13T09:31:09;97614.16;;;38.75;31.81
6094;BME280;19964;42.060;24.700;2023-07-13T09:33:39;97614.16;;;39.32;33.24
6094;BME280;19964;42.060;24.700;2023-07-13T09:36:18;97609.97;;;39.50;34.64
6094;BME280;19964;42.060;24.700;2023-07-13T09:38:45;97603.94;;;39.39;32.26
6094;BME280;19964;42.060;24.700;2023-07-13T09:41:21;97602.72;;;39.44;32.92
6094;BME280;19964;42.060;24.700;2023-07-13T09:44:07;97592.00;;;39.60;32.27
6094;BME280;19964;42.060;24.700;2023-07-13T09:46:39;97596.91;;;39.19;30.17
6094;BME280;19964;42.060;24.700;2023-07-13T09:49:10;97588.09;;;40.07;31.73
6094;BME280;19964;42.060;24.700;2023-07-13T09:51:37;97584.56;;;39.87;32.74
6094;BME280;19964;42.060;24.700;2023-07-13T09:54:04;97580.16;;;40.16;30.38
6094;BME280;19964;42.060;24.700;2023-07-13T09:56:31;97582.03;;;39.76;29.40
6094;BME280;19964;42.060;24.700;2023-07-13T09:58:58;97576.81;;;39.39;28.93
6094;BME280;19964;42.060;24.700;2023-07-13T10:01:33;97566.13;;;39.02;28.66
6094;BME280;19964;42.060;24.700;2023-07-13T10:04:02;97568.88;;;39.75;28.80
6094;BME280;19964;42.060;24.700;2023-07-13T10:06:38;97562.66;;;40.17;28.81
6094;BME280;19964;42.060;24.700;2023-07-13T10:09:07;97542.91;;;39.74;28.13
6094;BME280;19964;42.060;24.700;2023-07-13T10:11:35;97555.38;;;39.94;27.60
6094;BME280;19964;42.060;24.700;2023-07-13T10:14:10;97546.94;;;39.66;29.99
6094;BME280;19964;42.060;24.700;2023-07-13T10:16:37;97551.00;;;39.54;30.51
6094;BME280;19964;42.060;24.700;2023-07-13T10:19:11;97542.47;;;39.75;32.15
6094;BME280;19964;42.060;24.700;2023-07-13T10:21:47;97535.31;;;39.42;30.89
6094;BME280;19964;42.060;24.700;2023-07-13T10:24:19;97527.16;;;39.19;29.92
6094;BME280;19964;42.060;24.700;2023-07-13T10:26:52;97540.34;;;38.90;29.22
6094;BME280;19964;42.060;24.700;2023-07-13T10:29:22;97543.31;;;39.49;28.82
6094;BME280;19964;42.060;24.700;2023-07-13T10:31:51;97536.78;;;39.24;29.78
6094;BME280;19964;42.060;24.700;2023-07-13T10:34:19;97551.72;;;39.58;30.17
6094;BME280;19964;42.060;24.700;2023-07-13T10:36:47;97539.34;;;40.00;28.54
6094;BME280;19964;42.060;24.700;2023-07-13T10:39:17;97544.50;;;40.34;29.80
6094;BME280;19964;42.060;24.700;2023-07-13T10:41:48;97529.16;;;39.15;29.08
6094;BME280;19964;42.060;24.700;2023-07-13T10:44:21;97535.69;;;39.87;30.34
6094;BME280;19964;42.060;24.700;2023-07-13T10:46:52;97540.31;;;39.21;29.67
6094;BME280;19964;42.060;24.700;2023-07-13T10:49:22;97541.63;;;38.82;31.06
6094;BME280;19964;42.060;24.700;2023-07-13T10:51:49;97529.06;;;38.39;32.12
6094;BME280;19964;42.060;24.700;2023-07-13T10:54:19;97525.50;;;38.75;31.81
6094;BME280;19964;42.060;24.700;2023-07-13T10:56:51;97522.97;;;38.88;31.49
6094;BME280;19964;42.060;24.700;2023-07-13T10:59:23;97524.69;;;39.28;30.97
6094;BME280;19964;42.060;24.700;2023-07-13T11:01:55;97529.59;;;39.79;29.56
6094;BME280;19964;42.060;24.700;2023-07-13T11:04:25;97519.22;;;39.05;27.85
6094;BME280;19964;42.060;24.700;2023-07-13T11:06:57;97515.72;;;39.31;28.47
6094;BME280;19964;42.060;24.700;2023-07-13T11:09:36;97516.97;;;39.27;29.25
6094;BME280;19964;42.060;24.700;2023-07-13T11:12:10;97517.69;;;38.17;29.65
6094;BME280;19964;42.060;24.700;2023-07-13T11:15:06;97511.31;;;38.34;29.94
6094;BME280;19964;42.060;24.700;2023-07-13T11:17:46;97502.06;;;37.98;29.94
6094;BME280;19964;42.060;24.700;2023-07-13T11:20:24;97501.97;;;38.39;30.28
6094;BME280;19964;42.060;24.700;2023-07-13T11:23:18;97511.78;;;38.56;29.82
6094;BME280;19964;42.060;24.700;2023-07-13T11:25:45;97513.72;;;38.85;29.43
6094;BME280;19964;42.060;24.700;2023-07-13T11:28:21;97503.81;;;38.75;30.16
6094;BME280;19964;42.060;24.700;2023-07-13T11:30:50;97505.66;;;39.08;28.12
6094;BME280;19964;42.060;24.700;2023-07-13T11:33:28;97502.25;;;39.01;28.83
6094;BME280;19964;42.060;24.700;2023-07-13T11:36:03;97499.19;;;39.45;27.53
6094;BME280;19964;42.060;24.700;2023-07-13T11:38:35;97489.91;;;38.96;27.89
6094;BME280;19964;42.060;24.700;2023-07-13T11:41:05;97481.28;;;39.05;28.61
6094;BME280;19964;42.060;24.700;2023-07-13T11:43:33;97492.28;;;39.41;27.91
6094;BME280;19964;42.060;24.700;2023-07-13T11:46:12;97493.41;;;39.43;28.00
6094;BME280;19964;42.060;24.700;2023-07-13T11:48:39;97493.47;;;39.63;28.01
6094;BME280;19964;42.060;24.700;2023-07-13T11:51:14;97473.72;;;39.62;27.98
6094;BME280;19964;42.060;24.700;2023-07-13T11:53:45;97476.63;;;39.52;28.23
6094;BME280;19964;42.060;24.700;2023-07-13T11:56:13;97488.25;;;39.52;27.80
6094;BME280;19964;42.060;24.700;2023-07-13T11:58:40;97485.91;;;39.74;28.68
6094;BME280;19964;42.060;24.700;2023-07-13T12:01:16;97491.72;;;39.30;27.78
6094;BME280;19964;42.060;24.700;2023-07-13T12:03:45;97487.06;;;39.53;26.90
6094;BME280;19964;42.060;24.700;2023-07-13T12:06:25;97483.00;;;39.42;28.25
6094;BME280;19964;42.060;24.700;2023-07-13T12:08:56;97471.56;;;39.54;26.62
6094;BME280;19964;42.060;24.700;2023-07-13T12:11:23;97469.56;;;39.97;27.65
6094;BME280;19964;42.060;24.700;2023-07-13T12:13:50;97461.75;;;39.99;26.98
6094;BME280;19964;42.060;24.700;2023-07-13T12:16:25;97458.81;;;39.70;29.42
6094;BME280;19964;42.060;24.700;2023-07-13T12:18:53;97457.72;;;39.68;27.15
6094;BME280;19964;42.060;24.700;2023-07-13T12:21:26;97456.63;;;39.85;26.17
6094;BME280;19964;42.060;24.700;2023-07-13T12:23:55;97445.41;;;39.63;25.50
6094;BME280;19964;42.060;24.700;2023-07-13T12:26:22;97448.81;;;39.87;27.73
6094;BME280;19964;42.060;24.700;2023-07-13T12:28:52;97442.88;;;39.72;26.05
6094;BME280;19964;42.060;24.700;2023-07-13T12:31:31;97443.66;;;39.92;25.68
6094;BME280;19964;42.060;24.700;2023-07-13T12:34:00;97438.22;;;39.53;24.95
6094;BME280;19964;42.060;24.700;2023-07-13T12:36:31;97438.19;;;39.34;25.17
6094;BME280;19964;42.060;24.700;2023-07-13T12:39:04;97439.66;;;40.01;24.53
6094;BME280;19964;42.060;24.700;2023-07-13T12:41:36;97433.69;;;39.86;26.15
6094;BME280;19964;42.060;24.700;2023-07-13T12:44:03;97428.81;;;40.17;25.63
6094;BME280;19964;42.060;24.700;2023-07-13T12:46:31;97423.84;;;40.31;25.86
6094;BME280;19964;42.060;24.700;2023-07-13T12:48:58;97432.38;;;39.55;26.50
6094;BME280;19964;42.060;24.700;2023-07-13T12:51:26;97418.63;;;39.65;25.55
6094;BME280;19964;42.060;24.700;2023-07-13T12:53:57;97413.75;;;39.96;26.11
6094;BME280;19964;42.060;24.700;2023-07-13T12:56:26;97413.91;;;40.05;26.36
6094;BME280;19964;42.060;24.700;2023-07-13T12:58:57;97416.63;;;40.05;25.13
6094;BME280;19964;42.060;24.700;2023-07-13T13:01:27;97416.59;;;40.25;25.08
6094;BME280;19964;42.060;24.700;2023-07-13T13:03:55;97419.50;;;39.98;25.94
6094;BME280;19964;42.060;24.700;2023-07-13T13:06:24;97408.91;;;39.84;24.62
6094;BME280;19964;42.060;24.700;2023-07-13T13:08:52;97405.72;;;39.89;24.89